Time;durP1;ratioP1;P1;durP2;ratioP2;P2;SDS_P1;SDS_P2;PMS_P1;PMS_P2;Temp;Humidity;BMP_temperature;BMP_pressure;BME280_temperature;BME280_humidity;BME280_pressure;Samples;Min_cycle;Max_cycle;Signal;HPM_P1;HPM_P2
2023/05/13 00:00:14;;;;;;;14.15;11.23;;;12.10;99.90;;;;;;4938243;28;20114;-71
2023/05/13 00:02:40;;;;;;;13.63;10.95;;;12.10;99.90;;;;;;4940141;28;20062;-72
2023/05/13 00:05:06;;;;;;;13.25;10.82;;;12.10;99.90;;;;;;4941225;28;20044;-73
2023/05/13 00:07:32;;;;;;;15.15;11.52;;;12.10;99.90;;;;;;4939466;28;20051;-72
2023/05/13 00:09:58;;;;;;;17.08;11.32;;;12.10;99.90;;;;;;4940074;28;20099;-71
2023/05/13 00:12:23;;;;;;;17.10;10.95;;;12.10;99.90;;;;;;4936983;28;20047;-72
2023/05/13 00:14:49;;;;;;;13.88;11.65;;;12.10;99.90;;;;;;4940700;28;20056;-74
2023/05/13 00:17:14;;;;;;;14.75;11.43;;;12.10;99.90;;;;;;4932849;28;20051;-72
2023/05/13 00:19:40;;;;;;;13.68;11.13;;;12.10;99.90;;;;;;4920131;29;20039;-72
2023/05/13 00:22:06;;;;;;;14.05;11.75;;;12.10;99.90;;;;;;4919260;28;20048;-71
2023/05/13 00:24:32;;;;;;;17.02;11.85;;;12.10;99.90;;;;;;4938820;28;20110;-71
2023/05/13 00:26:57;;;;;;;19.70;12.95;;;12.10;99.90;;;;;;4939199;28;20164;-71
2023/05/13 00:29:23;;;;;;;14.98;12.30;;;12.10;99.90;;;;;;4923225;28;20404;-72
2023/05/13 00:31:49;;;;;;;17.10;12.45;;;12.10;99.90;;;;;;4908224;28;20043;-72
2023/05/13 00:34:15;;;;;;;14.45;12.35;;;12.10;99.90;;;;;;4934604;28;20042;-72
2023/05/13 00:36:41;;;;;;;15.98;12.40;;;12.00;99.90;;;;;;4940205;28;20057;-72
2023/05/13 00:39:06;;;;;;;15.25;12.45;;;12.00;99.90;;;;;;4938130;28;20047;-72
2023/05/13 00:41:32;;;;;;;16.08;12.55;;;12.00;99.90;;;;;;4937991;28;20461;-71
2023/05/13 00:43:58;;;;;;;16.77;12.32;;;12.00;99.90;;;;;;4938514;28;20101;-72
2023/05/13 00:46:24;;;;;;;15.43;11.70;;;12.00;99.90;;;;;;4938966;28;20043;-72
2023/05/13 00:48:50;;;;;;;17.67;13.32;;;11.90;99.90;;;;;;4923684;28;20147;-73
2023/05/13 00:51:16;;;;;;;14.65;11.98;;;11.90;99.90;;;;;;4949798;28;20053;-71
2023/05/13 00:53:42;;;;;;;13.05;11.00;;;11.90;99.90;;;;;;4960714;28;20039;-71
2023/05/13 00:56:07;;;;;;;13.60;11.27;;;11.90;99.90;;;;;;4938686;28;20050;-73
2023/05/13 00:58:33;;;;;;;21.58;11.50;;;11.90;99.90;;;;;;4955820;28;20030;-72
2023/05/13 01:01:20;;;;;;;17.05;11.90;;;11.90;99.90;;;;;;4935776;28;20067;-72
2023/05/13 01:04:14;;;;;;;16.38;11.80;;;11.90;99.90;;;;;;4944417;28;20050;-72
2023/05/13 01:07:07;;;;;;;14.43;12.43;;;11.90;99.90;;;;;;4940489;28;20121;-72
2023/05/13 01:09:48;;;;;;;15.85;11.02;;;11.80;99.90;;;;;;4951634;28;20050;-72
2023/05/13 01:12:39;;;;;;;15.45;11.23;;;11.80;99.90;;;;;;4952051;28;20038;-72
2023/05/13 01:15:14;;;;;;;13.23;9.95;;;11.80;99.90;;;;;;4937312;28;20544;-72
2023/05/13 01:17:49;;;;;;;13.63;10.60;;;11.80;99.90;;;;;;4954296;28;20055;-72
2023/05/13 01:20:20;;;;;;;15.35;10.70;;;11.80;99.90;;;;;;4953620;28;20514;-72
2023/05/13 01:22:46;;;;;;;12.07;9.40;;;11.80;99.90;;;;;;4938406;28;20074;-73
2023/05/13 01:25:11;;;;;;;14.05;9.82;;;11.80;99.90;;;;;;4936998;28;20134;-73
2023/05/13 01:27:37;;;;;;;18.60;9.90;;;11.80;99.90;;;;;;4943928;28;20053;-72
2023/05/13 01:30:03;;;;;;;12.77;9.77;;;11.80;99.90;;;;;;4937022;28;20058;-72
2023/05/13 01:32:29;;;;;;;12.52;9.07;;;11.80;99.90;;;;;;4951266;28;20054;-72
2023/05/13 01:34:56;;;;;;;12.45;10.20;;;11.80;99.90;;;;;;4936217;28;20418;-72
2023/05/13 01:37:22;;;;;;;15.35;9.00;;;11.80;99.90;;;;;;4935997;28;20093;-73
2023/05/13 01:39:48;;;;;;;13.25;8.75;;;11.80;99.90;;;;;;4940214;28;20585;-72
2023/05/13 01:42:14;;;;;;;10.35;9.13;;;11.80;99.90;;;;;;4957213;28;20042;-72
2023/05/13 01:44:40;;;;;;;13.25;9.18;;;11.80;99.90;;;;;;4956913;28;20249;-72
2023/05/13 01:47:06;;;;;;;12.63;9.65;;;11.80;99.90;;;;;;4953647;28;20554;-72
2023/05/13 01:49:31;;;;;;;11.40;8.48;;;11.80;99.90;;;;;;4949230;28;20182;-72
2023/05/13 01:51:57;;;;;;;13.63;9.48;;;11.80;99.90;;;;;;4923509;28;20050;-72
2023/05/13 01:54:24;;;;;;;11.05;8.80;;;11.80;99.90;;;;;;4926161;28;20067;-71
2023/05/13 01:56:50;;;;;;;13.32;9.20;;;11.80;99.90;;;;;;4940458;28;20469;-72
2023/05/13 01:59:15;;;;;;;11.68;9.05;;;11.80;99.90;;;;;;4938557;28;20062;-71
2023/05/13 02:01:41;;;;;;;14.68;10.50;;;11.70;99.90;;;;;;4940758;28;20051;-72
2023/05/13 02:04:07;;;;;;;14.25;9.55;;;11.70;99.90;;;;;;4940473;28;20422;-72
2023/05/13 02:06:32;;;;;;;16.25;9.95;;;11.70;99.90;;;;;;4939643;28;20102;-73
2023/05/13 02:08:58;;;;;;;13.63;10.40;;;11.60;99.90;;;;;;4941320;28;21881;-73
2023/05/13 02:11:24;;;;;;;15.85;11.07;;;11.50;99.90;;;;;;4928843;28;20097;-72
2023/05/13 02:13:49;;;;;;;14.27;11.35;;;11.50;99.90;;;;;;4949898;28;20084;-72
2023/05/13 02:16:19;;;;;;;13.82;10.60;;;11.50;99.90;;;;;;4946383;28;20039;-72
2023/05/13 02:18:45;;;;;;;11.50;10.18;;;11.50;99.90;;;;;;4932195;28;20491;-72
2023/05/13 02:21:10;;;;;;;16.55;11.40;;;11.40;99.90;;;;;;4946658;28;20057;-71
2023/05/13 02:23:36;;;;;;;13.70;10.90;;;11.40;99.90;;;;;;4928194;28;20139;-71
2023/05/13 02:26:02;;;;;;;12.65;11.18;;;11.40;99.90;;;;;;4940895;28;20506;-71
2023/05/13 02:28:28;;;;;;;18.55;11.15;;;11.40;99.90;;;;;;4944464;28;20058;-72
2023/05/13 02:30:53;;;;;;;14.98;10.43;;;11.40;99.90;;;;;;4928421;28;20559;-71
2023/05/13 02:33:19;;;;;;;12.50;11.15;;;11.40;99.90;;;;;;4946825;28;20045;-72
2023/05/13 02:35:45;;;;;;;14.57;11.77;;;11.40;99.90;;;;;;4925440;28;20055;-72
2023/05/13 02:38:10;;;;;;;17.50;13.32;;;11.30;99.90;;;;;;4945517;28;20040;-71
2023/05/13 02:40:36;;;;;;;16.60;12.50;;;11.20;99.90;;;;;;4925355;28;20126;-71
2023/05/13 02:43:02;;;;;;;18.08;12.48;;;11.20;99.90;;;;;;4936420;28;20048;-71
2023/05/13 02:45:27;;;;;;;15.05;12.48;;;11.20;99.90;;;;;;4945829;28;20518;-71
2023/05/13 02:47:53;;;;;;;20.55;12.85;;;11.20;99.90;;;;;;4924640;28;20054;-70
2023/05/13 02:50:19;;;;;;;15.82;12.02;;;11.20;99.90;;;;;;4928655;28;20055;-71
2023/05/13 02:52:45;;;;;;;16.42;12.70;;;11.20;99.90;;;;;;4943768;28;20074;-71
2023/05/13 02:55:10;;;;;;;16.55;11.55;;;11.20;99.90;;;;;;4959377;28;20530;-71
2023/05/13 02:57:38;;;;;;;17.48;14.07;;;11.20;99.90;;;;;;4958139;28;20623;-71
2023/05/13 03:00:05;;;;;;;16.40;13.13;;;11.20;99.90;;;;;;4943847;28;20053;-72
2023/05/13 03:02:32;;;;;;;16.08;13.25;;;11.10;99.90;;;;;;4943318;28;20071;-71
2023/05/13 03:04:57;;;;;;;20.77;13.52;;;11.20;99.90;;;;;;4941976;28;20054;-72
2023/05/13 03:07:23;;;;;;;18.55;14.80;;;11.10;99.90;;;;;;4958762;28;20049;-71
2023/05/13 03:09:49;;;;;;;18.02;16.02;;;11.10;99.90;;;;;;4962992;28;20047;-71
2023/05/13 03:12:15;;;;;;;22.98;16.50;;;11.00;99.90;;;;;;4961971;28;20665;-72
2023/05/13 03:14:43;;;;;;;18.70;16.70;;;11.00;99.90;;;;;;4960115;28;20129;-72
2023/05/13 03:17:09;;;;;;;20.83;16.23;;;10.90;99.90;;;;;;4962538;28;20046;-72
2023/05/13 03:19:36;;;;;;;22.73;17.40;;;11.00;99.90;;;;;;4961431;28;20058;-72
2023/05/13 03:22:03;;;;;;;22.17;16.40;;;10.90;99.90;;;;;;4939281;28;20054;-72
2023/05/13 03:24:29;;;;;;;23.58;16.52;;;10.90;99.90;;;;;;4933374;28;20117;-72
2023/05/13 03:26:55;;;;;;;21.35;17.40;;;10.90;99.90;;;;;;4924378;28;20106;-72
2023/05/13 03:29:21;;;;;;;24.55;18.77;;;10.90;99.90;;;;;;4938278;28;20444;-72
2023/05/13 03:31:47;;;;;;;22.90;18.30;;;10.90;99.90;;;;;;4958638;28;20043;-72
2023/05/13 03:34:13;;;;;;;23.88;18.25;;;10.90;99.90;;;;;;4940441;28;20150;-72
2023/05/13 03:36:38;;;;;;;23.73;18.90;;;10.90;99.90;;;;;;4957163;28;20042;-72
2023/05/13 03:39:04;;;;;;;26.42;19.10;;;10.90;99.90;;;;;;4960028;28;20035;-72
2023/05/13 03:41:30;;;;;;;25.55;19.42;;;10.90;99.90;;;;;;4954521;28;20512;-72
2023/05/13 03:43:55;;;;;;;25.38;20.15;;;10.90;99.90;;;;;;4926780;28;20206;-71
2023/05/13 03:46:22;;;;;;;27.05;21.48;;;10.90;99.90;;;;;;4940195;28;20050;-71
2023/05/13 03:48:48;;;;;;;29.42;20.45;;;10.90;99.90;;;;;;4956718;28;20049;-70
2023/05/13 03:51:13;;;;;;;28.05;19.95;;;10.90;99.90;;;;;;4926865;28;20077;-70
2023/05/13 03:53:39;;;;;;;25.35;20.27;;;10.90;99.90;;;;;;4939713;28;20163;-71
2023/05/13 03:56:05;;;;;;;25.02;19.05;;;10.90;99.90;;;;;;4920753;28;20098;-71
2023/05/13 03:58:31;;;;;;;26.25;19.42;;;10.90;99.90;;;;;;4935619;28;21204;-71
2023/05/13 04:00:56;;;;;;;24.00;17.58;;;10.90;99.90;;;;;;4937794;28;20058;-71
2023/05/13 04:03:22;;;;;;;22.67;18.40;;;10.90;99.90;;;;;;4938758;28;20070;-71
2023/05/13 04:05:48;;;;;;;19.88;16.52;;;10.90;99.90;;;;;;4920821;28;20113;-71
2023/05/13 04:08:14;;;;;;;20.88;16.92;;;10.90;99.90;;;;;;4919658;28;20066;-71
2023/05/13 04:10:40;;;;;;;18.17;16.08;;;11.00;99.90;;;;;;4921236;28;20044;-72
2023/05/13 04:13:06;;;;;;;21.33;15.90;;;11.00;99.90;;;;;;4938973;28;20476;-71
2023/05/13 04:15:32;;;;;;;20.35;15.70;;;11.00;99.90;;;;;;4916736;28;20044;-71
2023/05/13 04:17:58;;;;;;;18.48;15.45;;;11.00;99.90;;;;;;4937677;28;20050;-71
2023/05/13 04:20:24;;;;;;;17.23;14.27;;;11.00;99.90;;;;;;4904767;28;20496;-71
2023/05/13 04:22:50;;;;;;;21.10;13.55;;;11.00;99.90;;;;;;4903984;28;21336;-71
2023/05/13 04:25:16;;;;;;;20.70;13.48;;;11.10;99.90;;;;;;4935702;28;20077;-71
2023/05/13 04:27:42;;;;;;;17.10;12.55;;;11.20;99.90;;;;;;4937626;28;20122;-71
2023/05/13 04:30:08;;;;;;;18.65;12.27;;;11.10;99.90;;;;;;4917711;29;20738;-71
2023/05/13 04:32:34;;;;;;;19.00;12.02;;;11.20;99.90;;;;;;4911054;28;20091;-71
2023/05/13 04:35:00;;;;;;;14.32;10.98;;;11.20;99.90;;;;;;4921149;28;20652;-71
2023/05/13 04:37:26;;;;;;;19.25;10.93;;;11.20;99.90;;;;;;4930029;28;20070;-70
2023/05/13 04:39:51;;;;;;;16.02;10.32;;;11.30;99.90;;;;;;4911037;28;20142;-72
2023/05/13 04:42:17;;;;;;;13.75;9.40;;;11.30;99.90;;;;;;4927135;28;20377;-71
2023/05/13 04:44:43;;;;;;;19.88;9.57;;;11.40;99.90;;;;;;4930353;28;20055;-71
2023/05/13 04:47:09;;;;;;;10.50;8.60;;;11.40;99.90;;;;;;4930105;28;20631;-71
2023/05/13 04:49:35;;;;;;;17.48;8.40;;;11.50;99.90;;;;;;4890813;28;20541;-72
2023/05/13 04:52:02;;;;;;;13.32;9.20;;;11.60;99.90;;;;;;4943816;28;20074;-71
2023/05/13 04:54:27;;;;;;;14.73;8.60;;;11.70;99.90;;;;;;4938860;28;20252;-71
2023/05/13 04:56:53;;;;;;;10.88;7.65;;;11.80;99.90;;;;;;4941634;28;20096;-72
2023/05/13 04:59:19;;;;;;;12.07;7.38;;;11.80;99.90;;;;;;4935090;28;20070;-71
2023/05/13 05:01:45;;;;;;;12.57;6.60;;;11.90;99.90;;;;;;4961488;28;20475;-72
2023/05/13 05:04:11;;;;;;;8.82;6.47;;;12.10;99.90;;;;;;4927510;28;20036;-70
2023/05/13 05:06:37;;;;;;;12.60;6.70;;;12.10;99.90;;;;;;4928228;28;20081;-70
2023/05/13 05:09:03;;;;;;;10.98;6.97;;;12.30;99.90;;;;;;4955595;28;20066;-71
2023/05/13 05:11:29;;;;;;;13.23;6.82;;;12.30;99.90;;;;;;4940412;28;20038;-70
2023/05/13 05:13:55;;;;;;;12.77;7.00;;;12.40;99.90;;;;;;4921943;28;20050;-71
2023/05/13 05:16:20;;;;;;;11.52;6.47;;;12.50;99.90;;;;;;4955941;28;20187;-70
2023/05/13 05:18:46;;;;;;;12.00;7.63;;;12.60;99.90;;;;;;4939054;28;20043;-71
2023/05/13 05:21:12;;;;;;;11.50;6.75;;;12.60;99.90;;;;;;4955980;28;20051;-71
2023/05/13 05:23:38;;;;;;;8.90;6.68;;;12.70;99.90;;;;;;4938179;28;20086;-70
2023/05/13 05:26:04;;;;;;;9.15;6.32;;;12.80;99.90;;;;;;4957681;28;20043;-70
2023/05/13 05:28:30;;;;;;;12.45;6.32;;;12.90;99.90;;;;;;4956731;28;20050;-70
2023/05/13 05:30:55;;;;;;;12.80;6.82;;;13.00;99.90;;;;;;4927631;28;20077;-70
2023/05/13 05:33:22;;;;;;;12.38;6.07;;;13.10;99.90;;;;;;4955309;28;20055;-71
2023/05/13 05:35:47;;;;;;;9.63;6.30;;;13.30;99.90;;;;;;4938950;28;20043;-71
2023/05/13 05:38:13;;;;;;;11.27;5.95;;;13.30;99.90;;;;;;4959650;28;20553;-70
2023/05/13 05:40:41;;;;;;;9.82;5.93;;;13.50;99.90;;;;;;4956765;28;20070;-71
2023/05/13 05:43:07;;;;;;;14.25;6.47;;;13.60;99.90;;;;;;4937795;28;20071;-71
2023/05/13 05:45:39;;;;;;;7.30;5.45;;;13.70;99.90;;;;;;4953101;28;20550;-71
2023/05/13 05:48:05;;;;;;;13.30;6.20;;;13.80;99.90;;;;;;4940015;28;20431;-71
2023/05/13 05:50:32;;;;;;;10.43;5.65;;;13.90;99.90;;;;;;4934868;28;20049;-71
2023/05/13 05:52:58;;;;;;;13.93;6.47;;;14.00;99.90;;;;;;4954528;28;20043;-70
2023/05/13 05:55:24;;;;;;;10.05;5.53;;;14.10;99.90;;;;;;4931866;28;20054;-71
2023/05/13 05:57:50;;;;;;;10.88;5.72;;;14.30;99.90;;;;;;4956340;28;20066;-70
2023/05/13 06:00:17;;;;;;;11.25;5.03;;;14.40;99.90;;;;;;4956845;28;20141;-71
2023/05/13 06:02:43;;;;;;;7.47;4.93;;;14.50;99.90;;;;;;4958084;28;20109;-70
2023/05/13 06:05:09;;;;;;;10.90;5.63;;;14.60;99.90;;;;;;4931191;28;20055;-72
2023/05/13 06:07:34;;;;;;;11.15;5.90;;;14.60;99.90;;;;;;4954971;28;20051;-71
2023/05/13 06:10:00;;;;;;;10.23;5.80;;;14.70;99.90;;;;;;4957385;28;20044;-71
2023/05/13 06:12:26;;;;;;;10.20;5.32;;;14.80;99.90;;;;;;4917498;28;20039;-71
2023/05/13 06:14:51;;;;;;;9.93;5.45;;;14.90;99.90;;;;;;4958643;28;20570;-71
2023/05/13 06:17:17;;;;;;;14.50;5.53;;;14.90;99.90;;;;;;4948876;28;20030;-71
2023/05/13 06:19:42;;;;;;;10.40;5.45;;;15.00;99.90;;;;;;4957321;28;20598;-70
2023/05/13 06:22:09;;;;;;;9.98;5.32;;;15.20;99.90;;;;;;4949625;28;20110;-70
2023/05/13 06:24:34;;;;;;;15.40;6.15;;;15.20;99.90;;;;;;4960590;28;20142;-74
2023/05/13 06:27:00;;;;;;;12.07;5.70;;;15.30;99.90;;;;;;4963754;28;20568;-70
2023/05/13 06:29:27;;;;;;;11.75;6.55;;;15.50;99.90;;;;;;4942025;28;20043;-70
2023/05/13 06:31:52;;;;;;;9.38;5.75;;;15.60;99.90;;;;;;4965538;28;20065;-69
2023/05/13 06:34:18;;;;;;;8.05;5.40;;;15.70;99.90;;;;;;4955691;28;20138;-71
2023/05/13 06:36:44;;;;;;;10.75;5.30;;;15.80;99.90;;;;;;4959462;28;20085;-71
2023/05/13 06:39:10;;;;;;;13.38;6.35;;;15.90;99.90;;;;;;4956671;28;20106;-71
2023/05/13 06:41:37;;;;;;;10.90;5.22;;;16.00;99.90;;;;;;4941335;28;20047;-72
2023/05/13 06:44:03;;;;;;;7.22;5.05;;;16.10;99.90;;;;;;4960159;28;20141;-73
2023/05/13 06:46:28;;;;;;;12.02;5.93;;;16.30;99.90;;;;;;4958264;28;20162;-72
2023/05/13 06:48:55;;;;;;;10.07;5.28;;;16.40;99.90;;;;;;4938065;28;20047;-70
2023/05/13 06:51:21;;;;;;;8.60;5.20;;;16.50;99.90;;;;;;4907440;28;20122;-71
2023/05/13 06:53:48;;;;;;;8.63;5.10;;;16.60;99.90;;;;;;4932422;28;20090;-71
2023/05/13 06:56:13;;;;;;;9.43;5.10;;;16.70;99.90;;;;;;4929062;28;20728;-71
2023/05/13 06:58:39;;;;;;;6.38;4.88;;;16.80;99.90;;;;;;4938547;28;20525;-70
2023/05/13 07:01:04;;;;;;;10.60;5.28;;;16.90;99.90;;;;;;4944073;28;20400;-70
2023/05/13 07:03:30;;;;;;;10.40;5.50;;;17.00;99.90;;;;;;4942136;28;20144;-70
2023/05/13 07:05:56;;;;;;;9.48;5.40;;;17.20;99.90;;;;;;4924018;28;20130;-71
2023/05/13 07:08:21;;;;;;;11.43;5.95;;;17.30;99.90;;;;;;4923230;29;20047;-71
2023/05/13 07:10:47;;;;;;;11.30;4.78;;;17.40;99.90;;;;;;4927747;28;20531;-70
2023/05/13 07:13:13;;;;;;;11.43;5.47;;;17.50;99.90;;;;;;4941006;28;20396;-71
2023/05/13 07:15:39;;;;;;;9.95;5.20;;;17.50;99.90;;;;;;4922403;29;20391;-72
2023/05/13 07:18:05;;;;;;;9.98;6.10;;;17.60;99.90;;;;;;4938976;28;20047;-72
2023/05/13 07:20:31;;;;;;;11.15;5.95;;;17.70;99.90;;;;;;4941120;28;20039;-72
2023/05/13 07:22:57;;;;;;;15.70;6.65;;;17.90;99.90;;;;;;4938785;28;20406;-73
2023/05/13 07:25:24;;;;;;;9.93;4.70;;;17.90;99.90;;;;;;4937019;28;20047;-73
2023/05/13 07:27:49;;;;;;;10.77;5.15;;;17.90;99.90;;;;;;4904979;28;20044;-71
2023/05/13 07:30:15;;;;;;;8.85;4.70;;;18.00;99.90;;;;;;4939300;28;20050;-71
2023/05/13 07:32:41;;;;;;;6.55;4.20;;;18.00;99.90;;;;;;4927178;28;20042;-71
2023/05/13 07:35:07;;;;;;;9.55;4.65;;;18.20;99.90;;;;;;4937422;29;20284;-69
2023/05/13 07:37:33;;;;;;;10.02;4.68;;;18.20;99.90;;;;;;4940577;29;20048;-69
2023/05/13 07:39:58;;;;;;;9.02;4.28;;;18.20;99.90;;;;;;4936880;29;20117;-69
2023/05/13 07:42:26;;;;;;;8.27;4.53;;;18.20;99.90;;;;;;4939652;29;20507;-70
2023/05/13 07:44:51;;;;;;;9.38;4.63;;;18.30;99.90;;;;;;4941077;29;20039;-70
2023/05/13 07:47:17;;;;;;;12.02;5.38;;;18.50;99.90;;;;;;4939786;29;20126;-69
2023/05/13 07:49:43;;;;;;;8.18;4.95;;;18.60;99.90;;;;;;4926271;28;20051;-67
2023/05/13 07:52:08;;;;;;;8.80;4.85;;;18.80;99.90;;;;;;4954945;28;20372;-68
2023/05/13 07:54:34;;;;;;;9.35;4.90;;;18.90;99.90;;;;;;4958651;28;20050;-67
2023/05/13 07:56:59;;;;;;;9.57;5.18;;;19.00;99.90;;;;;;4945596;28;20043;-67
2023/05/13 07:59:25;;;;;;;9.02;4.95;;;19.00;99.90;;;;;;4959422;28;20066;-66
2023/05/13 08:01:51;;;;;;;8.40;5.00;;;18.90;99.90;;;;;;4958453;28;20047;-66
2023/05/13 08:04:17;;;;;;;8.77;4.40;;;19.00;99.90;;;;;;4958491;28;20491;-67
2023/05/13 08:06:42;;;;;;;10.48;4.75;;;19.10;99.90;;;;;;4963303;28;20259;-67
2023/05/13 08:09:11;;;;;;;9.10;4.80;;;19.30;99.90;;;;;;4937675;28;20522;-67
2023/05/13 08:11:37;;;;;;;9.60;5.10;;;19.30;99.90;;;;;;4937938;28;20133;-66
2023/05/13 08:14:04;;;;;;;9.50;5.32;;;19.30;99.90;;;;;;4962698;28;20047;-67
2023/05/13 08:16:29;;;;;;;8.90;4.93;;;19.40;99.90;;;;;;4946686;28;20042;-67
2023/05/13 08:18:56;;;;;;;7.70;4.95;;;19.40;99.90;;;;;;4964586;28;20058;-66
2023/05/13 08:21:22;;;;;;;8.90;5.22;;;19.40;99.90;;;;;;4962914;28;20096;-66
2023/05/13 08:23:50;;;;;;;8.23;4.82;;;19.40;99.90;;;;;;4940603;28;20061;-67
2023/05/13 08:26:16;;;;;;;8.60;4.88;;;19.50;99.90;;;;;;4944559;28;20039;-67
2023/05/13 08:28:42;;;;;;;8.95;5.15;;;19.50;99.90;;;;;;4963650;28;20106;-67
2023/05/13 08:31:09;;;;;;;10.82;4.55;;;19.60;99.90;;;;;;4942279;28;20066;-67
2023/05/13 08:33:35;;;;;;;7.82;4.82;;;19.70;99.90;;;;;;4961019;28;20118;-67
2023/05/13 08:36:01;;;;;;;9.50;4.57;;;19.70;99.90;;;;;;4959769;28;20167;-68
2023/05/13 08:38:26;;;;;;;9.75;5.32;;;19.60;99.90;;;;;;4960279;28;20054;-68
2023/05/13 08:40:52;;;;;;;10.63;5.43;;;19.60;99.90;;;;;;4958611;28;20039;-67
2023/05/13 08:43:18;;;;;;;8.68;4.68;;;19.70;99.90;;;;;;4955729;28;20117;-67
2023/05/13 08:45:45;;;;;;;9.75;5.90;;;19.80;99.90;;;;;;4939782;28;20062;-67
2023/05/13 08:48:14;;;;;;;8.40;5.30;;;19.90;99.90;;;;;;4962076;28;20521;-68
2023/05/13 08:50:40;;;;;;;8.75;5.32;;;20.10;99.90;;;;;;4957631;28;20566;-67
2023/05/13 08:53:06;;;;;;;8.00;4.45;;;20.10;99.90;;;;;;4957672;28;20047;-70
2023/05/13 08:55:32;;;;;;;13.57;4.60;;;20.30;99.90;;;;;;4941075;28;20497;-68
2023/05/13 08:57:58;;;;;;;9.55;4.65;;;20.30;99.90;;;;;;4955637;28;20039;-67
2023/05/13 09:00:24;;;;;;;8.48;4.57;;;20.40;99.90;;;;;;4953800;28;20054;-67
2023/05/13 09:02:50;;;;;;;9.70;4.70;;;20.40;99.90;;;;;;4960995;28;20070;-67
2023/05/13 09:05:16;;;;;;;6.57;4.43;;;20.50;99.90;;;;;;4953754;28;20044;-67
2023/05/13 09:07:42;;;;;;;7.15;4.75;;;20.50;99.90;;;;;;4947303;28;20175;-67
2023/05/13 09:10:09;;;;;;;9.00;4.68;;;20.60;99.90;;;;;;4958627;28;20075;-69
2023/05/13 09:12:45;;;;;;;14.32;4.80;;;20.60;99.90;;;;;;4957772;28;20043;-67
2023/05/13 09:15:16;;;;;;;9.02;4.15;;;20.60;99.90;;;;;;4960193;28;20454;-68
2023/05/13 09:17:44;;;;;;;10.13;4.25;;;20.70;99.90;;;;;;4958175;28;20563;-66
2023/05/13 09:20:12;;;;;;;9.50;4.57;;;20.70;99.90;;;;;;4953886;28;20102;-67
2023/05/13 09:22:49;;;;;;;7.72;4.53;;;20.80;99.90;;;;;;4958687;28;20327;-67
2023/05/13 09:25:17;;;;;;;9.05;3.97;;;20.90;99.90;;;;;;4958979;28;20082;-66
2023/05/13 09:27:47;;;;;;;7.13;3.78;;;21.00;99.90;;;;;;4959395;28;20030;-67
2023/05/13 09:30:13;;;;;;;13.57;4.57;;;21.00;99.90;;;;;;4962976;28;20043;-67
2023/05/13 09:32:41;;;;;;;12.63;5.05;;;21.00;99.90;;;;;;4957855;28;20474;-66
2023/05/13 09:35:18;;;;;;;10.40;5.07;;;21.00;99.90;;;;;;4956402;28;20467;-66
2023/05/13 09:37:45;;;;;;;8.93;4.57;;;21.00;99.90;;;;;;4958534;28;20039;-66
2023/05/13 09:40:12;;;;;;;5.78;3.80;;;21.20;99.90;;;;;;4942375;28;20044;-67
2023/05/13 09:42:42;;;;;;;9.40;4.72;;;21.10;99.90;;;;;;4941250;28;20170;-69
2023/05/13 09:45:09;;;;;;;11.40;4.70;;;21.10;99.90;;;;;;4931922;28;20125;-69
2023/05/13 09:47:35;;;;;;;6.63;4.47;;;21.10;99.90;;;;;;4955947;28;20078;-70
2023/05/13 09:50:02;;;;;;;12.05;4.18;;;21.10;99.90;;;;;;4959299;28;20629;-68
2023/05/13 09:52:30;;;;;;;8.55;4.47;;;21.00;99.90;;;;;;4954527;28;20058;-67
2023/05/13 09:54:57;;;;;;;11.02;4.85;;;21.00;99.90;;;;;;4941855;28;20121;-68
2023/05/13 09:57:26;;;;;;;12.93;5.05;;;21.00;99.90;;;;;;4958443;28;20935;-68
2023/05/13 10:00:06;;;;;;;9.35;4.82;;;21.30;99.90;;;;;;4954647;28;20050;-69
2023/05/13 10:02:33;;;;;;;8.73;4.30;;;21.40;99.90;;;;;;4954062;28;20122;-72
2023/05/13 10:04:58;;;;;;;9.95;5.05;;;21.50;99.90;;;;;;4939455;28;20051;-69
2023/05/13 10:07:24;;;;;;;8.48;4.10;;;21.50;99.90;;;;;;4937174;28;20426;-70
2023/05/13 10:09:52;;;;;;;10.98;5.47;;;21.50;99.90;;;;;;4945583;28;20043;-70
2023/05/13 10:12:21;;;;;;;7.72;4.63;;;21.40;99.90;;;;;;4959147;28;20487;-69
2023/05/13 10:14:51;;;;;;;8.52;4.07;;;21.50;99.90;;;;;;4941825;28;20051;-71
2023/05/13 10:17:22;;;;;;;8.70;5.00;;;21.60;99.90;;;;;;4955328;28;20043;-71
2023/05/13 10:19:50;;;;;;;8.23;4.63;;;21.50;99.90;;;;;;4957428;28;20547;-70
2023/05/13 10:22:28;;;;;;;8.85;4.70;;;21.40;99.90;;;;;;4935503;28;20070;-70
2023/05/13 10:24:59;;;;;;;9.38;4.18;;;21.30;99.90;;;;;;4938346;28;20040;-71
2023/05/13 10:27:28;;;;;;;10.07;4.43;;;21.20;99.90;;;;;;4940705;28;20046;-71
2023/05/13 10:29:55;;;;;;;6.70;4.15;;;21.20;99.90;;;;;;4955771;28;20054;-71
2023/05/13 10:32:25;;;;;;;7.70;4.70;;;21.30;99.90;;;;;;4955326;28;20483;-71
2023/05/13 10:35:01;;;;;;;9.70;4.38;;;21.40;99.90;;;;;;4960286;28;20061;-71
2023/05/13 10:38:00;;;;;;;8.93;4.32;;;21.50;99.90;;;;;;4965634;28;20082;-70
2023/05/13 10:40:57;;;;;;;10.60;4.25;;;21.50;99.90;;;;;;4961809;28;20601;-70
2023/05/13 10:43:25;;;;;;;12.05;4.30;;;21.40;99.90;;;;;;4959836;28;20040;-68
2023/05/13 10:45:59;;;;;;;7.70;4.55;;;21.50;99.90;;;;;;4960920;28;20822;-69
2023/05/13 10:48:24;;;;;;;11.60;5.45;;;21.50;99.90;;;;;;4942672;28;20082;-69
2023/05/13 10:50:53;;;;;;;10.63;5.15;;;21.70;99.90;;;;;;4947187;28;20039;-69
2023/05/13 10:53:24;;;;;;;10.70;5.72;;;21.70;99.90;;;;;;4924189;29;20085;-70
2023/05/13 10:55:54;;;;;;;8.68;4.70;;;21.70;99.90;;;;;;4948623;28;20043;-71
2023/05/13 10:58:23;;;;;;;7.32;4.47;;;21.80;99.90;;;;;;4920340;29;20047;-70
2023/05/13 11:00:49;;;;;;;14.57;5.45;;;21.80;99.90;;;;;;4918964;29;20500;-69
2023/05/13 11:03:18;;;;;;;10.07;6.05;;;21.90;99.90;;;;;;4943554;29;20060;-71
2023/05/13 11:06:05;;;;;;;9.27;5.45;;;22.00;99.90;;;;;;4932756;28;20123;-70
2023/05/13 11:08:39;;;;;;;11.38;6.90;;;22.10;99.90;;;;;;4927687;28;20075;-69
2023/05/13 11:11:21;;;;;;;10.18;5.78;;;22.10;99.90;;;;;;4941703;28;20079;-69
2023/05/13 11:14:07;;;;;;;9.80;5.88;;;22.10;99.90;;;;;;4922970;28;20047;-69
2023/05/13 11:16:34;;;;;;;12.20;5.18;;;22.10;99.90;;;;;;4926524;29;20399;-70
2023/05/13 11:19:01;;;;;;;8.27;6.03;;;22.10;99.90;;;;;;4925264;29;20380;-70
2023/05/13 11:21:30;;;;;;;9.00;6.53;;;22.00;99.90;;;;;;4938727;28;20047;-70
2023/05/13 11:24:02;;;;;;;9.85;6.25;;;22.00;99.90;;;;;;4941890;28;20479;-70
2023/05/13 11:26:46;;;;;;;12.65;5.95;;;22.00;99.90;;;;;;4941231;28;20127;-70
2023/05/13 11:29:12;;;;;;;14.25;6.43;;;22.00;99.90;;;;;;4938964;28;20074;-70
2023/05/13 11:31:49;;;;;;;8.75;6.93;;;22.10;99.90;;;;;;4939361;28;20055;-69
2023/05/13 11:34:18;;;;;;;13.75;6.95;;;22.10;99.90;;;;;;4925007;29;20078;-69
2023/05/13 11:36:46;;;;;;;14.40;7.55;;;22.00;99.90;;;;;;4942412;28;20130;-69
2023/05/13 11:39:13;;;;;;;8.57;6.20;;;22.00;99.90;;;;;;4937324;28;20187;-68
2023/05/13 11:41:49;;;;;;;10.75;6.65;;;22.10;99.90;;;;;;4942322;28;20515;-69
2023/05/13 11:44:17;;;;;;;11.02;7.07;;;22.10;99.90;;;;;;4937347;28;20051;-68
2023/05/13 11:47:04;;;;;;;11.20;6.20;;;22.10;99.90;;;;;;4940856;28;20195;-68
2023/05/13 11:49:36;;;;;;;9.90;6.68;;;22.10;99.90;;;;;;4927259;28;20744;-69
2023/05/13 11:52:14;;;;;;;8.80;5.50;;;22.20;99.90;;;;;;4919536;28;20586;-68
2023/05/13 11:54:48;;;;;;;9.77;6.18;;;22.20;99.90;;;;;;4942687;28;20079;-69
2023/05/13 11:57:16;;;;;;;10.68;6.78;;;22.20;99.90;;;;;;4939479;28;20103;-69
2023/05/13 11:59:52;;;;;;;9.73;6.35;;;22.20;99.90;;;;;;4916027;28;20604;-69
2023/05/13 12:02:29;;;;;;;10.15;7.38;;;22.30;99.90;;;;;;4918110;29;20051;-69
2023/05/13 12:04:55;;;;;;;7.82;6.22;;;22.30;99.90;;;;;;4920625;29;20159;-70
2023/05/13 12:07:25;;;;;;;10.90;5.80;;;22.30;99.90;;;;;;4944251;28;20118;-70
2023/05/13 12:09:57;;;;;;;11.02;5.55;;;22.10;99.90;;;;;;4939096;28;20051;-69
2023/05/13 12:12:24;;;;;;;6.50;5.10;;;22.10;99.90;;;;;;4925346;28;20190;-68
2023/05/13 12:14:50;;;;;;;10.73;5.80;;;22.20;99.90;;;;;;4944099;28;20458;-69
2023/05/13 12:17:19;;;;;;;7.40;4.65;;;22.20;99.90;;;;;;4939130;29;20044;-69
2023/05/13 12:20:07;;;;;;;9.82;5.82;;;22.10;99.90;;;;;;4938133;28;20051;-69
2023/05/13 12:22:34;;;;;;;7.20;4.97;;;22.20;99.90;;;;;;4941785;28;20043;-69
2023/05/13 12:25:20;;;;;;;11.95;5.40;;;22.40;99.90;;;;;;4942286;28;20043;-69
2023/05/13 12:27:53;;;;;;;9.25;5.28;;;22.50;99.90;;;;;;4940430;28;20058;-69
2023/05/13 12:30:18;;;;;;;10.02;5.10;;;22.60;99.90;;;;;;4935402;28;20051;-70
2023/05/13 12:32:46;;;;;;;8.23;4.97;;;22.70;99.90;;;;;;4942205;28;20431;-69
2023/05/13 12:35:13;;;;;;;13.15;5.60;;;22.70;99.90;;;;;;4937618;28;20114;-69
2023/05/13 12:37:39;;;;;;;12.50;4.82;;;22.80;99.90;;;;;;4937952;28;20060;-69
2023/05/13 12:40:09;;;;;;;8.05;4.50;;;22.80;99.90;;;;;;4926529;28;20074;-70